createdAt,value
2019-04-16T00:02:12.323Z,5.47
2019-04-16T00:05:07.384Z,5.73
2019-04-16T00:07:47.179Z,6.57
2019-04-16T00:10:26.218Z,5.90
2019-04-16T00:13:05.388Z,5.60
2019-04-16T00:15:35.506Z,5.90
2019-04-16T00:18:05.819Z,6.13
2019-04-16T00:20:38.954Z,5.80
2019-04-16T00:23:15.656Z,5.73
2019-04-16T00:25:45.724Z,5.30
2019-04-16T00:28:16.276Z,5.33
2019-04-16T00:30:46.353Z,5.87
2019-04-16T00:33:16.406Z,5.60
2019-04-16T00:35:46.656Z,5.57
2019-04-16T00:38:17.248Z,5.90
2019-04-16T00:40:47.284Z,5.83
2019-04-16T00:43:17.220Z,5.10
2019-04-16T00:45:56.696Z,6.07
2019-04-16T00:48:26.781Z,5.37
2019-04-16T00:50:56.872Z,5.60
2019-04-16T00:53:26.860Z,6.87
2019-04-16T00:55:56.952Z,6.17
2019-04-16T00:58:27.316Z,5.40
2019-04-16T01:00:57.462Z,5.70
2019-04-16T01:03:27.689Z,5.70
2019-04-16T01:05:57.888Z,5.20
2019-04-16T01:08:27.844Z,6.20
2019-04-16T01:10:57.968Z,5.30
2019-04-16T01:13:28.229Z,5.10
2019-04-16T01:16:02.484Z,5.40
2019-04-16T01:18:30.526Z,5.87
2019-04-16T01:21:01.784Z,5.90
2019-04-16T01:23:31.896Z,6.00
2019-04-16T01:26:02.107Z,5.30
2019-04-16T01:28:34.376Z,5.40
2019-04-16T01:31:23.345Z,5.80
2019-04-16T01:34:15.213Z,5.07
2019-04-16T01:37:02.079Z,5.10
2019-04-16T01:39:32.852Z,5.53
2019-04-16T01:42:03.040Z,5.57
2019-04-16T01:44:33.390Z,5.87
2019-04-16T01:47:05.194Z,5.80
2019-04-16T01:49:35.697Z,5.53
2019-04-16T01:52:06.026Z,5.43
2019-04-16T01:54:36.365Z,7.00
2019-04-16T01:57:06.998Z,5.90
2019-04-16T01:59:37.260Z,6.57
2019-04-16T02:02:07.296Z,6.13
2019-04-16T02:04:37.724Z,5.40
2019-04-16T02:07:08.025Z,6.30
2019-04-16T02:09:38.167Z,5.70
2019-04-16T02:12:12.976Z,5.80
2019-04-16T02:14:40.161Z,6.30
2019-04-16T02:17:10.246Z,5.77
2019-04-16T02:19:40.209Z,5.97
2019-04-16T02:22:13.808Z,5.87
2019-04-16T02:24:42.382Z,6.27
2019-04-16T02:27:12.522Z,5.67
2019-04-16T02:29:43.018Z,5.80
2019-04-16T02:32:13.045Z,5.93
2019-04-16T02:34:43.753Z,6.57
2019-04-16T02:37:14.040Z,6.10
2019-04-16T02:39:49.143Z,5.50
2019-04-16T02:42:16.131Z,7.20
2019-04-16T02:44:50.135Z,6.37
2019-04-16T02:47:17.887Z,6.30
2019-04-16T02:49:48.599Z,6.30
2019-04-16T02:52:35.729Z,6.53
2019-04-16T02:55:28.011Z,6.43
2019-04-16T02:58:02.496Z,6.47
2019-04-16T03:00:50.784Z,6.77
2019-04-16T03:03:27.638Z,6.20
2019-04-16T03:06:00.679Z,5.80
2019-04-16T03:08:29.585Z,9.20
2019-04-16T03:10:59.696Z,6.20
2019-04-16T03:13:30.959Z,6.07
2019-04-16T03:16:26.249Z,6.60
2019-04-16T03:19:08.689Z,6.40
2019-04-16T03:21:38.667Z,7.13
2019-04-16T03:24:10.078Z,7.10
2019-04-16T03:26:40.681Z,6.43
2019-04-16T03:29:10.725Z,6.50
2019-04-16T03:31:40.733Z,6.60
2019-04-16T03:34:11.095Z,6.60
2019-04-16T03:36:41.821Z,6.70
2019-04-16T03:39:13.860Z,6.67
2019-04-16T03:41:43.946Z,7.00
2019-04-16T03:44:14.261Z,6.60
2019-04-16T03:46:46.739Z,7.17
2019-04-16T03:49:16.600Z,7.73
2019-04-16T03:51:46.691Z,6.70
2019-04-16T03:54:18.867Z,7.30
2019-04-16T03:56:49.344Z,6.93
2019-04-16T03:59:19.336Z,6.50
2019-04-16T04:01:49.422Z,6.83
2019-04-16T04:04:20.110Z,6.30
2019-04-16T04:06:50.741Z,6.60
2019-04-16T04:09:22.222Z,7.13
2019-04-16T04:11:53.348Z,10.33
2019-04-16T04:14:23.647Z,7.90
2019-04-16T04:16:53.648Z,7.27
2019-04-16T04:19:23.860Z,7.70
2019-04-16T04:21:54.482Z,9.40
2019-04-16T04:24:24.706Z,7.67
2019-04-16T04:26:54.672Z,6.90
2019-04-16T04:29:25.118Z,7.00
2019-04-16T04:31:55.164Z,7.33
2019-04-16T04:34:25.145Z,6.53
2019-04-16T04:36:58.877Z,6.93
2019-04-16T04:39:26.757Z,7.10
2019-04-16T04:41:57.261Z,8.87
2019-04-16T04:44:28.066Z,7.53
2019-04-16T04:46:58.151Z,6.97
2019-04-16T04:49:30.505Z,7.23
2019-04-16T04:51:59.720Z,7.00
2019-04-16T04:54:29.677Z,7.33
2019-04-16T04:57:00.255Z,8.27
2019-04-16T04:59:30.452Z,7.50
2019-04-16T05:02:00.848Z,7.33
2019-04-16T05:05:04.872Z,7.50
2019-04-16T05:07:34.948Z,7.80
2019-04-16T05:10:07.459Z,7.63
2019-04-16T05:15:19.338Z,7.20
2019-04-16T05:17:49.594Z,7.23
2019-04-16T05:20:20.544Z,7.43
2019-04-16T05:22:53.489Z,7.43
2019-04-16T05:25:22.627Z,7.40
2019-04-16T05:27:53.308Z,7.53
2019-04-16T05:30:23.511Z,8.57
2019-04-16T05:32:53.662Z,7.40
2019-04-16T05:35:23.670Z,6.80
2019-04-16T05:37:53.627Z,8.00
2019-04-16T05:40:23.558Z,6.77
2019-04-16T05:42:55.814Z,7.83
2019-04-16T05:45:25.151Z,7.80
2019-04-16T05:47:55.181Z,6.97
2019-04-16T05:50:28.786Z,6.57
2019-04-16T05:52:57.913Z,7.40
2019-04-16T05:55:36.094Z,6.80
2019-04-16T05:58:06.083Z,7.70
2019-04-16T06:01:26.348Z,7.17
2019-04-16T06:03:56.430Z,6.70
2019-04-16T06:06:28.754Z,7.20
2019-04-16T06:08:58.352Z,7.63
2019-04-16T06:11:35.391Z,6.90
2019-04-16T06:14:19.732Z,6.70
2019-04-16T06:17:07.077Z,6.93
2019-04-16T06:20:08.077Z,6.30
2019-04-16T06:23:03.520Z,6.30
2019-04-16T06:25:43.998Z,6.43
2019-04-16T06:28:39.204Z,6.50
2019-04-16T06:31:22.189Z,6.90
2019-04-16T06:34:08.128Z,7.10
2019-04-16T06:36:57.502Z,7.40
2019-04-16T06:39:49.325Z,6.13
2019-04-16T06:42:29.724Z,6.20
2019-04-16T06:45:04.831Z,7.00
2019-04-16T06:47:49.680Z,6.20
2019-04-16T06:50:47.726Z,7.70
2019-04-16T06:53:38.817Z,5.90
2019-04-16T06:56:26.557Z,6.30
2019-04-16T06:59:11.866Z,6.70
2019-04-16T07:02:00.824Z,6.23
2019-04-16T07:04:45.756Z,6.13
2019-04-16T07:07:45.905Z,5.97
2019-04-16T07:10:15.900Z,5.63
2019-04-16T07:12:46.323Z,6.53
2019-04-16T07:15:22.085Z,6.13
2019-04-16T07:17:48.728Z,6.57
2019-04-16T07:20:18.977Z,6.00
2019-04-16T07:22:52.757Z,7.00
2019-04-16T07:25:22.174Z,5.30
2019-04-16T07:28:14.776Z,5.93
2019-04-16T07:30:53.855Z,5.80
2019-04-16T07:33:43.484Z,4.87
2019-04-16T07:36:27.175Z,6.03
2019-04-16T07:39:13.392Z,5.70
2019-04-16T07:42:10.886Z,6.30
2019-04-16T07:45:11.503Z,5.47
2019-04-16T07:48:14.096Z,5.53
2019-04-16T07:51:15.400Z,6.53
2019-04-16T07:54:21.709Z,7.10
2019-04-16T07:56:51.790Z,5.63
2019-04-16T07:59:21.769Z,6.13
2019-04-16T08:01:52.096Z,5.63
2019-04-16T08:04:28.624Z,6.13
2019-04-16T08:06:53.805Z,5.70
2019-04-16T08:09:28.928Z,5.47
2019-04-16T08:11:55.454Z,5.50
2019-04-16T08:14:25.616Z,5.40
2019-04-16T08:16:55.749Z,6.23
2019-04-16T08:19:36.604Z,7.10
2019-04-16T08:21:57.472Z,6.37
2019-04-16T08:24:32.037Z,6.20
2019-04-16T08:27:02.318Z,7.07
2019-04-16T08:29:32.281Z,6.10
2019-04-16T08:32:02.265Z,7.23
2019-04-16T08:34:32.295Z,6.17
2019-04-16T08:37:02.552Z,5.97
2019-04-16T08:39:32.644Z,7.37
2019-04-16T08:42:02.676Z,7.20
2019-04-16T08:44:35.327Z,6.57
2019-04-16T08:47:04.792Z,6.80
2019-04-16T08:49:34.789Z,5.90
2019-04-16T08:52:09.828Z,6.10
2019-04-16T08:54:36.745Z,6.70
2019-04-16T08:57:06.754Z,6.30
2019-04-16T08:59:39.549Z,5.70
2019-04-16T09:02:08.796Z,6.40
2019-04-16T09:04:38.907Z,6.43
2019-04-16T09:07:13.010Z,6.10
2019-04-16T09:09:56.962Z,7.17
2019-04-16T09:12:25.883Z,6.00
2019-04-16T09:14:56.371Z,6.57
2019-04-16T09:17:33.444Z,6.30
2019-04-16T09:20:11.933Z,7.20
2019-04-16T09:22:49.404Z,6.70
2019-04-16T09:25:55.156Z,6.13
2019-04-16T09:29:08.406Z,6.50
2019-04-16T09:32:04.703Z,6.10
2019-04-16T09:35:08.850Z,6.40
2019-04-16T09:37:43.181Z,6.03
2019-04-16T09:40:31.114Z,5.90
2019-04-16T09:43:15.667Z,5.80
2019-04-16T09:45:33.860Z,5.00
2019-04-16T09:48:05.542Z,6.07
2019-04-16T09:50:35.541Z,5.90
2019-04-16T09:53:05.613Z,6.03
2019-04-16T09:55:35.632Z,5.60
2019-04-16T09:58:11.342Z,5.30
2019-04-16T10:00:43.612Z,4.60
2019-04-16T10:03:29.325Z,4.50
2019-04-16T10:05:59.879Z,4.93
2019-04-16T10:08:30.364Z,4.27
2019-04-16T10:11:02.782Z,5.70
2019-04-16T10:13:35.895Z,4.90
2019-04-16T10:16:03.733Z,6.77
2019-04-16T10:18:35.084Z,5.00
2019-04-16T10:21:06.373Z,5.83
2019-04-16T10:23:45.802Z,5.77
2019-04-16T10:26:16.717Z,5.77
2019-04-16T10:28:47.319Z,5.63
2019-04-16T10:31:19.360Z,5.47
2019-04-16T10:33:49.551Z,5.77
2019-04-16T10:36:19.981Z,5.10
2019-04-16T10:39:08.428Z,3.70
2019-04-16T10:42:09.163Z,5.10
2019-04-16T10:45:07.152Z,4.63
2019-04-16T10:47:52.502Z,4.20
2019-04-16T10:50:41.570Z,4.87
2019-04-16T10:53:26.772Z,5.67
2019-04-16T10:56:14.920Z,4.37
2019-04-16T10:59:07.008Z,4.13
2019-04-16T11:01:45.877Z,4.77
2019-04-16T11:04:33.544Z,4.70
2019-04-16T11:07:09.091Z,5.27
2019-04-16T11:09:39.196Z,4.70
2019-04-16T11:12:09.418Z,4.80
2019-04-16T11:14:39.539Z,4.40
2019-04-16T11:17:10.050Z,4.60
2019-04-16T11:19:40.332Z,4.13
2019-04-16T11:22:11.264Z,4.73
2019-04-16T11:24:42.135Z,4.57
2019-04-16T11:27:12.212Z,4.27
2019-04-16T11:29:42.738Z,5.80
2019-04-16T11:32:14.910Z,4.80
2019-04-16T11:34:45.912Z,5.20
2019-04-16T11:37:16.038Z,4.10
2019-04-16T11:39:46.000Z,4.40
2019-04-16T11:42:16.247Z,4.37
2019-04-16T11:44:46.280Z,4.30
2019-04-16T11:47:20.788Z,4.10
2019-04-16T11:49:51.184Z,4.53
2019-04-16T11:52:21.477Z,4.90
2019-04-16T11:54:51.515Z,4.67
2019-04-16T11:57:22.065Z,4.60
2019-04-16T12:00:06.025Z,4.07
2019-04-16T12:02:28.419Z,4.97
2019-04-16T12:05:08.796Z,5.73
2019-04-16T12:08:00.670Z,4.30
2019-04-16T12:10:54.275Z,4.90
2019-04-16T12:13:52.809Z,5.10
2019-04-16T12:16:45.481Z,4.77
2019-04-16T12:19:32.821Z,4.30
2019-04-16T12:22:24.898Z,4.80
2019-04-16T12:25:13.379Z,4.40
2019-04-16T12:28:01.943Z,4.90
2019-04-16T12:30:42.710Z,4.20
2019-04-16T12:33:36.792Z,4.60
2019-04-16T12:36:29.344Z,4.40
2019-04-16T12:39:24.642Z,5.70
2019-04-16T12:42:16.526Z,4.80
2019-04-16T12:44:59.584Z,4.73
2019-04-16T12:47:48.430Z,4.27
2019-04-16T12:50:56.224Z,4.60
2019-04-16T12:53:53.393Z,4.20
2019-04-16T12:56:41.281Z,5.27
2019-04-16T12:59:22.939Z,5.10
2019-04-16T13:02:23.477Z,4.83
2019-04-16T13:05:08.396Z,4.87
2019-04-16T13:08:12.650Z,5.20
2019-04-16T13:11:08.840Z,5.40
2019-04-16T13:13:56.978Z,4.80
2019-04-16T13:16:46.037Z,4.63
2019-04-16T13:19:35.100Z,4.80
2019-04-16T13:22:05.527Z,4.67
2019-04-16T13:24:40.745Z,5.23
2019-04-16T13:27:29.873Z,5.57
2019-04-16T13:30:01.813Z,4.03
2019-04-16T13:32:32.435Z,4.50
2019-04-16T13:35:04.661Z,4.40
2019-04-16T13:37:37.797Z,4.07
2019-04-16T13:40:11.096Z,4.17
2019-04-16T13:42:42.051Z,4.90
2019-04-16T13:45:28.146Z,4.20
2019-04-16T13:48:13.868Z,5.07
2019-04-16T13:51:01.769Z,4.63
2019-04-16T13:53:51.078Z,4.43
2019-04-16T13:56:42.149Z,4.10
2019-04-16T13:59:31.276Z,5.53
2019-04-16T14:02:33.429Z,4.73
2019-04-16T14:05:05.201Z,5.50
2019-04-16T14:07:35.650Z,4.40
2019-04-16T14:10:06.624Z,5.00
2019-04-16T14:12:42.078Z,4.70
2019-04-16T14:15:09.781Z,5.30
2019-04-16T14:17:51.912Z,5.10
2019-04-16T14:20:13.753Z,5.63
2019-04-16T14:22:44.023Z,5.10
2019-04-16T14:25:14.690Z,4.77
2019-04-16T14:27:45.083Z,4.80
2019-04-16T14:30:23.694Z,3.97
2019-04-16T14:32:53.720Z,4.50
2019-04-16T14:35:33.451Z,5.00
2019-04-16T14:37:58.163Z,4.60
2019-04-16T14:40:28.876Z,4.80
2019-04-16T14:42:59.385Z,4.33
2019-04-16T14:45:53.556Z,4.53
2019-04-16T14:48:09.698Z,4.90
2019-04-16T14:50:39.523Z,4.40
2019-04-16T14:53:09.629Z,4.83
2019-04-16T14:56:00.558Z,4.30
2019-04-16T14:58:38.367Z,4.80
2019-04-16T15:01:21.975Z,4.70
2019-04-16T15:04:10.852Z,4.90
2019-04-16T15:06:59.328Z,4.50
2019-04-16T15:09:54.616Z,4.33
2019-04-16T15:12:43.509Z,4.47
2019-04-16T15:15:42.064Z,3.90
2019-04-16T15:18:37.128Z,4.37
2019-04-16T15:21:24.539Z,4.70
2019-04-16T15:24:08.006Z,4.53
2019-04-16T15:27:02.266Z,4.70
2019-04-16T15:30:00.644Z,4.33
2019-04-16T15:32:52.764Z,4.40
2019-04-16T15:35:31.428Z,4.80
2019-04-16T15:38:20.406Z,5.00
2019-04-16T15:40:52.996Z,4.10
2019-04-16T15:43:50.914Z,4.80
2019-04-16T15:46:48.023Z,5.70
2019-04-16T15:49:24.158Z,4.83
2019-04-16T15:52:16.473Z,4.67
2019-04-16T15:55:11.449Z,4.33
2019-04-16T15:58:07.777Z,4.70
2019-04-16T16:01:03.513Z,5.60
2019-04-16T16:04:22.388Z,5.00
2019-04-16T16:06:58.042Z,5.17
2019-04-16T16:09:46.328Z,5.30
2019-04-16T16:12:27.751Z,5.03
2019-04-16T16:15:01.433Z,5.07
2019-04-16T16:17:32.005Z,4.53
2019-04-16T16:20:02.200Z,5.50
2019-04-16T16:22:32.250Z,5.37
2019-04-16T16:25:05.867Z,5.33
2019-04-16T16:27:34.440Z,5.67
2019-04-16T16:30:04.645Z,4.40
2019-04-16T16:32:35.612Z,5.00
2019-04-16T16:35:06.593Z,5.47
2019-04-16T16:37:37.519Z,4.93
2019-04-16T16:40:07.950Z,5.27
2019-04-16T16:42:38.724Z,5.37
2019-04-16T16:45:09.140Z,5.23
2019-04-16T16:47:42.233Z,5.20
2019-04-16T16:50:16.064Z,5.13
2019-04-16T16:53:02.774Z,4.97
2019-04-16T16:55:41.480Z,5.03
2019-04-16T16:58:30.445Z,5.83
2019-04-16T17:01:35.168Z,5.43
2019-04-16T17:04:31.566Z,5.73
2019-04-16T17:07:04.693Z,4.73
2019-04-16T17:09:36.004Z,5.00
2019-04-16T17:12:06.540Z,5.63
2019-04-16T17:14:37.842Z,5.60
2019-04-16T17:17:13.909Z,5.57
2019-04-16T17:19:40.332Z,5.40
2019-04-16T17:22:11.262Z,5.60
2019-04-16T17:24:41.345Z,5.80
2019-04-16T17:27:11.578Z,6.30
2019-04-16T17:29:42.301Z,6.43
2019-04-16T17:32:12.481Z,6.43
2019-04-16T17:34:42.596Z,6.30
2019-04-16T17:37:12.805Z,6.43
2019-04-16T17:39:50.740Z,6.20
2019-04-16T17:42:23.921Z,6.80
2019-04-16T17:45:22.349Z,5.97
2019-04-16T17:48:11.216Z,6.70
2019-04-16T17:51:03.239Z,6.50
2019-04-16T17:53:43.311Z,6.40
2019-04-16T17:56:51.880Z,5.63
2019-04-16T17:59:50.001Z,6.20
2019-04-16T18:02:38.726Z,6.40
2019-04-16T18:05:26.604Z,6.87
2019-04-16T18:08:15.853Z,6.30
2019-04-16T18:10:50.253Z,5.63
2019-04-16T18:13:48.098Z,7.23
2019-04-16T18:16:45.851Z,6.70
2019-04-16T18:19:40.809Z,6.80
2019-04-16T18:22:29.340Z,8.10
2019-04-16T18:25:21.112Z,7.03
2019-04-16T18:28:05.352Z,7.60
2019-04-16T18:30:39.723Z,7.53
2019-04-16T18:33:30.032Z,7.00
2019-04-16T18:36:17.785Z,7.63
2019-04-16T18:39:03.567Z,7.70
2019-04-16T18:41:44.044Z,8.37
2019-04-16T18:44:31.355Z,8.00
2019-04-16T18:47:29.102Z,7.63
2019-04-16T18:50:01.394Z,7.70
2019-04-16T18:52:31.558Z,6.80
2019-04-16T18:55:01.576Z,8.50
2019-04-16T18:57:31.494Z,7.47
2019-04-16T19:00:01.713Z,7.90
2019-04-16T19:02:31.883Z,7.43
2019-04-16T19:05:02.700Z,7.47
2019-04-16T19:07:32.742Z,7.40
2019-04-16T19:10:02.751Z,7.30
2019-04-16T19:12:32.900Z,8.63
2019-04-16T19:15:03.286Z,7.57
2019-04-16T19:17:33.336Z,6.73
2019-04-16T19:20:04.852Z,7.10
2019-04-16T19:22:35.294Z,7.00
2019-04-16T19:25:08.749Z,7.47
2019-04-16T19:27:38.051Z,6.93
2019-04-16T19:30:08.364Z,7.60
2019-04-16T19:32:40.052Z,6.80
2019-04-16T19:35:14.398Z,7.63
2019-04-16T19:37:42.712Z,7.00
2019-04-16T19:40:16.041Z,6.90
2019-04-16T19:42:44.816Z,7.43
2019-04-16T19:45:15.124Z,7.70
2019-04-16T19:47:45.638Z,7.40
2019-04-16T19:50:15.808Z,6.87
2019-04-16T19:52:45.893Z,7.43
2019-04-16T19:55:16.181Z,7.00
2019-04-16T19:57:46.460Z,7.80
2019-04-16T20:00:21.969Z,8.40
2019-04-16T20:02:49.027Z,7.93
2019-04-16T20:05:20.143Z,9.33
2019-04-16T20:07:50.536Z,7.50
2019-04-16T20:10:20.860Z,7.33
2019-04-16T20:12:51.314Z,8.00
2019-04-16T20:15:22.034Z,7.70
2019-04-16T20:17:52.079Z,8.00
2019-04-16T20:20:22.477Z,7.50
2019-04-16T20:22:52.975Z,8.40
2019-04-16T20:25:23.894Z,8.40
2019-04-16T20:27:54.160Z,8.17
2019-04-16T20:30:24.567Z,8.40
2019-04-16T20:32:59.687Z,8.00
2019-04-16T20:35:33.029Z,8.43
2019-04-16T20:38:04.680Z,8.23
2019-04-16T20:40:35.050Z,7.87
2019-04-16T20:43:07.156Z,10.27
2019-04-16T20:45:39.873Z,10.87
2019-04-16T20:48:12.487Z,10.30
2019-04-16T20:50:42.952Z,9.30
2019-04-16T20:53:20.450Z,9.20
2019-04-16T20:55:53.124Z,8.73
2019-04-16T20:58:31.562Z,8.50
2019-04-16T21:01:08.412Z,8.47
2019-04-16T21:03:39.911Z,11.80
2019-04-16T21:06:10.979Z,10.20
2019-04-16T21:08:41.057Z,10.60
2019-04-16T21:11:11.302Z,9.73
2019-04-16T21:13:41.517Z,9.60
2019-04-16T21:16:11.627Z,10.43
2019-04-16T21:18:44.867Z,8.07
2019-04-16T21:21:15.048Z,8.67
2019-04-16T21:23:45.036Z,9.80
2019-04-16T21:26:16.608Z,9.40
2019-04-16T21:29:05.621Z,8.80
2019-04-16T21:31:42.215Z,9.13
2019-04-16T21:34:29.960Z,10.80
2019-04-16T21:37:34.271Z,10.93
2019-04-16T21:40:05.837Z,10.40
2019-04-16T21:42:35.987Z,10.37
2019-04-16T21:45:07.141Z,9.60
2019-04-16T21:47:37.200Z,9.17
2019-04-16T21:50:07.512Z,9.80
2019-04-16T21:52:38.035Z,11.00
2019-04-16T21:55:08.788Z,9.53
2019-04-16T21:57:38.872Z,9.20
2019-04-16T22:00:12.195Z,10.63
2019-04-16T22:02:42.464Z,12.73
2019-04-16T22:05:16.895Z,11.43
2019-04-16T22:07:44.821Z,10.40
2019-04-16T22:10:15.338Z,10.93
2019-04-16T22:12:47.594Z,10.13
2019-04-16T22:15:17.152Z,10.83
2019-04-16T22:17:47.448Z,9.00
2019-04-16T22:20:17.459Z,9.47
2019-04-16T22:22:47.899Z,9.73
2019-04-16T22:25:17.880Z,10.13
2019-04-16T22:27:48.321Z,9.33
2019-04-16T22:30:19.386Z,10.27
2019-04-16T22:32:50.138Z,10.03
2019-04-16T22:35:20.308Z,9.30
2019-04-16T22:37:50.240Z,11.77
2019-04-16T22:40:32.439Z,10.10
2019-04-16T22:43:33.214Z,9.90
2019-04-16T22:46:25.529Z,9.83
2019-04-16T22:48:56.654Z,8.53
2019-04-16T22:51:27.027Z,10.00
2019-04-16T22:53:57.046Z,11.00
2019-04-16T22:56:34.878Z,10.43
2019-04-16T22:59:06.665Z,9.87
2019-04-16T23:01:38.340Z,11.17
2019-04-16T23:04:09.230Z,10.73
2019-04-16T23:06:39.237Z,10.30
2019-04-16T23:09:09.552Z,10.60
2019-04-16T23:11:39.924Z,10.57
2019-04-16T23:14:10.181Z,13.17
2019-04-16T23:16:42.744Z,10.93
2019-04-16T23:19:12.337Z,11.80
2019-04-16T23:21:43.173Z,15.13
2019-04-16T23:24:13.529Z,15.50
2019-04-16T23:26:43.472Z,13.20
2019-04-16T23:29:15.810Z,13.07
2019-04-16T23:31:45.160Z,11.17
2019-04-16T23:34:15.696Z,10.70
2019-04-16T23:36:48.800Z,12.13
2019-04-16T23:39:17.405Z,11.60
2019-04-16T23:41:48.205Z,9.33
2019-04-16T23:44:42.356Z,12.50
2019-04-16T23:47:32.473Z,10.63
2019-04-16T23:50:27.496Z,13.23
2019-04-16T23:53:03.853Z,12.73
2019-04-16T23:55:52.425Z,14.47
2019-04-16T23:58:28.559Z,14.40
